Mooreville, MS (38857)

1:03 AM CDT on August 28, 2015 (GMT -0500)
Deer Park Estates | | Change Station
CLOSE
Current Station
Personal Weather Station
Location: Tupelo, MS
Elevation: 364 ft
Nearby Weather Stations

Elev 364 ft 34.29 °N, 88.66 °W | Updated 0 second ago

Clear
Clear
63.0 °F
Feels Like 63.0 °F
N
0.0
Wind Variable Wind from SSE
Gusts 0.0 mph

Today
High -- | Low -- °F
--% Chance of Precip.
Yesterday
High -- | Low -- °F
Precip. -- in
6:24 AM 7:25 PM
Waxing Gibbous, 97% visible
Pressure 30.04 in
Visibility 10.0 miles
Clouds Clear
Dew Point 62 °F
Humidity 97%
Rainfall 0.00 in
Snow Depth Not available.
UV 0 out of 12
Pollen 8.30 out of 12
Air Quality Not available.
Flu Activity Not available.
METAR KTUP 280553Z AUTO 04003KT 10SM CLR 18/15 A3004 RMK AO2 SLP170 T01780150 10244 20178 402780144 56002
Pressure 30.04 in
Visibility 10.0 miles
Clouds Clear
Dew Point 62 °F
Humidity 97%
Rainfall 0.00 in
Snow Depth Not available.
UV 0 out of 12
Pollen 8.30 out of 12
Air Quality Not available.
Flu Activity Not available.
METAR KTUP 280553Z AUTO 04003KT 10SM CLR 18/15 A3004 RMK AO2 SLP170 T01780150 10244 20178 402780144 56002

10-Day Weather Forecast

×

Almanac

Astronomy

Aug. 28, 2015 Rise Set
Actual Time
Civil Twilight
Nautical Twilight
Astronomical Twilight
Moon
Length of Visible Light
Length of Day
Tomorrow will be .
, % of the Moon is Illuminated

Today's Extremes

State Highs State Lows

Community

WunderPhotos

Upload Photos

1,850,341 photos uploaded!

WunderBlogs® & News

Nearby

Air Quality

  Air Quality AQ Index Pollutant
Not available.

Snow Depth

Station Depth Elevation

Earthquake Activity

City Distance Mag. Time & Date
Minimum magnitude displayed is 2.5.

Coastal Water Temperatures

Place Temperature

Stations

Nearby Weather Stations

Station Location Temp. Windchill Dew Point Humidity Wind Precip. Elev Updated Type